createdAt,value
2018-06-21T00:02:13.200Z,17.90
2018-06-21T00:04:40.964Z,18.00
2018-06-21T00:07:08.625Z,18.00
2018-06-21T00:09:36.497Z,17.90
2018-06-21T00:12:05.220Z,17.90
2018-06-21T00:14:33.066Z,17.90
2018-06-21T00:17:00.939Z,17.80
2018-06-21T00:19:28.850Z,17.70
2018-06-21T00:21:56.596Z,17.70
2018-06-21T00:24:24.544Z,17.70
2018-06-21T00:26:52.354Z,17.80
2018-06-21T00:29:20.351Z,17.80
2018-06-21T00:31:48.006Z,17.80
2018-06-21T00:34:15.889Z,17.90
2018-06-21T00:36:43.723Z,17.80
2018-06-21T00:39:11.508Z,17.90
2018-06-21T00:41:39.381Z,17.90
2018-06-21T00:44:07.240Z,17.90
2018-06-21T00:46:35.264Z,17.80
2018-06-21T00:49:03.122Z,17.80
2018-06-21T00:51:30.889Z,17.70
2018-06-21T00:53:58.603Z,17.60
2018-06-21T00:56:26.425Z,17.50
2018-06-21T00:58:54.249Z,17.40
2018-06-21T01:01:22.377Z,17.40
2018-06-21T01:03:50.310Z,17.30
2018-06-21T01:06:18.153Z,17.20
2018-06-21T01:08:45.867Z,17.20
2018-06-21T01:11:13.671Z,17.10
2018-06-21T01:13:41.373Z,17.00
2018-06-21T01:16:09.154Z,17.00
2018-06-21T01:18:36.898Z,16.90
2018-06-21T01:21:05.069Z,16.80
2018-06-21T01:23:33.099Z,16.80
2018-06-21T01:26:01.027Z,16.80
2018-06-21T01:28:28.740Z,16.80
2018-06-21T01:30:56.593Z,16.70
2018-06-21T01:33:24.262Z,16.60
2018-06-21T01:35:51.967Z,16.60
2018-06-21T01:38:19.760Z,16.50
2018-06-21T01:40:47.721Z,16.50
2018-06-21T01:43:15.581Z,16.40
2018-06-21T01:45:43.611Z,16.40
2018-06-21T01:48:11.485Z,16.40
2018-06-21T01:50:39.329Z,16.30
2018-06-21T01:53:07.049Z,16.30
2018-06-21T01:55:34.737Z,16.30
2018-06-21T01:58:02.454Z,16.20
2018-06-21T02:00:32.391Z,16.20
2018-06-21T02:03:00.224Z,16.30
2018-06-21T02:05:28.110Z,16.20
2018-06-21T02:07:55.982Z,16.20
2018-06-21T02:10:23.735Z,16.20
2018-06-21T02:12:51.474Z,16.10
2018-06-21T02:15:19.324Z,15.90
2018-06-21T02:17:47.179Z,15.90
2018-06-21T02:20:14.957Z,15.90
2018-06-21T02:22:42.699Z,15.90
2018-06-21T02:25:10.534Z,15.90
2018-06-21T02:30:06.074Z,16.00
2018-06-21T02:32:33.859Z,16.00
2018-06-21T02:35:01.764Z,16.00
2018-06-21T02:37:29.532Z,16.00
2018-06-21T02:39:57.366Z,16.10
2018-06-21T02:42:25.191Z,16.20
2018-06-21T02:44:52.999Z,16.30
2018-06-21T02:47:20.902Z,16.40
2018-06-21T02:49:48.812Z,16.40
2018-06-21T02:52:16.642Z,16.30
2018-06-21T02:54:44.545Z,16.30
2018-06-21T02:57:12.483Z,16.10
2018-06-21T02:59:40.475Z,16.10
2018-06-21T03:02:08.206Z,16.00
2018-06-21T03:04:35.944Z,15.90
2018-06-21T03:07:03.838Z,15.70
2018-06-21T03:09:31.660Z,15.70
2018-06-21T03:11:59.548Z,15.70
2018-06-21T03:14:27.380Z,15.70
2018-06-21T03:16:55.303Z,15.60
2018-06-21T03:19:23.119Z,15.60
2018-06-21T03:21:50.971Z,15.50
2018-06-21T03:24:18.807Z,15.60
2018-06-21T03:26:46.511Z,15.60
2018-06-21T03:29:14.329Z,15.60
2018-06-21T03:31:42.211Z,15.70
2018-06-21T03:34:09.931Z,15.80
2018-06-21T03:39:06.199Z,15.90
2018-06-21T03:41:34.261Z,16.00
2018-06-21T03:44:02.221Z,16.00
2018-06-21T03:46:30.286Z,16.00
2018-06-21T03:48:58.122Z,15.90
2018-06-21T03:51:25.994Z,15.90
2018-06-21T03:53:53.794Z,15.90
2018-06-21T03:56:21.928Z,15.90
2018-06-21T03:58:49.790Z,15.90
2018-06-21T04:01:17.677Z,15.90
2018-06-21T04:03:45.795Z,15.90
2018-06-21T04:06:13.646Z,15.90
2018-06-21T04:08:41.767Z,15.90
2018-06-21T04:11:09.729Z,16.00
2018-06-21T04:13:37.633Z,16.10
2018-06-21T04:16:05.391Z,16.10
2018-06-21T04:18:36.099Z,16.20
2018-06-21T04:21:05.374Z,16.10
2018-06-21T04:26:01.623Z,16.20
2018-06-21T04:28:29.783Z,16.40
2018-06-21T04:30:57.978Z,16.40
2018-06-21T04:33:25.834Z,16.50
2018-06-21T04:35:53.770Z,16.60
2018-06-21T04:38:21.595Z,16.80
2018-06-21T04:40:49.548Z,16.90
2018-06-21T04:43:17.350Z,17.20
2018-06-21T04:45:45.283Z,17.50
2018-06-21T04:48:13.332Z,17.70
2018-06-21T04:50:41.325Z,18.00
2018-06-21T04:53:09.198Z,18.20
2018-06-21T04:55:37.070Z,18.40
2018-06-21T04:58:05.160Z,18.40
2018-06-21T05:00:33.069Z,18.50
2018-06-21T05:03:01.147Z,18.50
2018-06-21T05:05:29.091Z,18.40
2018-06-21T05:07:56.890Z,18.50
2018-06-21T05:10:24.753Z,18.70
2018-06-21T05:12:52.576Z,18.80
2018-06-21T05:15:20.410Z,18.80
2018-06-21T05:17:51.457Z,18.80
2018-06-21T05:20:19.348Z,18.90
2018-06-21T05:22:47.124Z,19.00
2018-06-21T05:25:15.040Z,19.20
2018-06-21T05:27:42.924Z,19.30
2018-06-21T05:30:10.781Z,19.50
2018-06-21T05:32:38.621Z,19.60
2018-06-21T05:35:06.540Z,19.80
2018-06-21T05:37:34.553Z,20.00
2018-06-21T05:40:02.295Z,20.10
2018-06-21T05:42:30.419Z,20.10
2018-06-21T05:44:58.214Z,20.10
2018-06-21T05:47:26.109Z,20.30
2018-06-21T05:49:54.050Z,20.50
2018-06-21T05:52:21.918Z,20.60
2018-06-21T05:54:49.816Z,20.70
2018-06-21T05:57:17.868Z,20.70
2018-06-21T05:59:45.894Z,20.70
2018-06-21T06:04:41.562Z,21.00
2018-06-21T06:07:09.678Z,21.10
2018-06-21T06:09:37.528Z,21.30
2018-06-21T06:12:05.704Z,21.50
2018-06-21T06:14:33.544Z,21.60
2018-06-21T06:17:01.604Z,21.70
2018-06-21T06:19:29.658Z,21.90
2018-06-21T06:21:57.375Z,22.10
2018-06-21T06:24:25.246Z,22.20
2018-06-21T06:26:53.256Z,22.20
2018-06-21T06:29:21.125Z,22.80
2018-06-21T06:31:49.085Z,24.50
2018-06-21T06:34:16.984Z,25.30
2018-06-21T06:36:44.718Z,25.10
2018-06-21T06:39:18.630Z,25.90
2018-06-21T06:41:48.911Z,27.10
2018-06-21T06:44:16.844Z,28.50
2018-06-21T06:46:44.675Z,29.30
2018-06-21T06:49:13.075Z,29.90
2018-06-21T06:51:41.163Z,30.40
2018-06-21T06:54:10.280Z,30.10
2018-06-21T06:56:38.251Z,30.50
2018-06-21T06:59:06.130Z,30.20
2018-06-21T07:01:34.012Z,30.20
2018-06-21T07:04:01.904Z,29.90
2018-06-21T07:06:29.791Z,30.00
2018-06-21T07:08:58.204Z,30.20
2018-06-21T07:11:27.043Z,30.80
2018-06-21T07:13:55.533Z,30.00
2018-06-21T07:16:23.564Z,29.80
2018-06-21T07:18:51.335Z,29.70
2018-06-21T07:21:20.316Z,30.30
2018-06-21T07:23:48.173Z,30.60
2018-06-21T07:26:16.171Z,31.40
2018-06-21T07:28:44.139Z,31.70
2018-06-21T07:31:12.034Z,31.40
2018-06-21T07:33:39.886Z,30.20
2018-06-21T07:36:07.552Z,28.90
2018-06-21T07:38:35.358Z,27.90
2018-06-21T07:41:03.075Z,27.90
2018-06-21T07:43:30.819Z,28.30
2018-06-21T07:45:58.656Z,29.00
2018-06-21T07:48:26.617Z,29.70
2018-06-21T07:50:54.438Z,30.10
2018-06-21T07:53:22.304Z,30.30
2018-06-21T07:55:50.044Z,31.00
2018-06-21T07:58:18.457Z,31.30
2018-06-21T08:00:46.450Z,31.50
2018-06-21T08:03:14.411Z,31.50
2018-06-21T08:05:42.851Z,31.80
2018-06-21T08:08:10.867Z,32.10
2018-06-21T08:10:38.682Z,32.50
2018-06-21T08:13:06.445Z,32.30
2018-06-21T08:15:34.320Z,32.00
2018-06-21T08:18:02.190Z,31.50
2018-06-21T08:20:29.958Z,31.50
2018-06-21T08:22:58.037Z,31.60
2018-06-21T08:25:26.040Z,31.50
2018-06-21T08:27:53.840Z,30.80
2018-06-21T08:30:21.717Z,29.70
2018-06-21T08:32:49.617Z,28.90
2018-06-21T08:35:17.680Z,28.20
2018-06-21T08:37:46.261Z,27.50
2018-06-21T08:40:14.319Z,27.50
2018-06-21T08:42:42.218Z,27.50
2018-06-21T08:45:10.008Z,27.50
2018-06-21T08:47:37.806Z,27.60
2018-06-21T08:50:05.678Z,27.40
2018-06-21T08:52:33.533Z,27.30
2018-06-21T08:55:01.603Z,26.90
2018-06-21T08:57:29.835Z,26.60
2018-06-21T08:59:57.876Z,26.80
2018-06-21T09:02:26.009Z,27.00
2018-06-21T09:04:54.138Z,27.30
2018-06-21T09:07:22.558Z,27.50
2018-06-21T09:09:50.607Z,27.80
2018-06-21T09:12:18.799Z,27.70
2018-06-21T09:14:47.345Z,27.80
2018-06-21T09:17:15.972Z,27.60
2018-06-21T09:19:46.135Z,27.80
2018-06-21T09:22:17.644Z,27.60
2018-06-21T09:24:45.794Z,27.80
2018-06-21T09:27:14.626Z,27.90
2018-06-21T09:29:44.444Z,28.20
2018-06-21T09:32:15.115Z,28.50
2018-06-21T09:34:43.918Z,28.50
2018-06-21T09:37:13.558Z,28.30
2018-06-21T09:39:48.439Z,27.80
2018-06-21T09:42:21.969Z,27.90
2018-06-21T09:44:55.420Z,27.80
2018-06-21T09:47:29.156Z,27.70
2018-06-21T09:49:57.204Z,27.60
2018-06-21T09:52:25.336Z,27.40
2018-06-21T09:54:53.348Z,27.80
2018-06-21T09:59:49.152Z,28.20
2018-06-21T10:02:17.376Z,28.30
2018-06-21T10:04:45.998Z,28.40
2018-06-21T10:07:14.233Z,28.10
2018-06-21T10:09:42.438Z,28.50
2018-06-21T10:12:10.451Z,28.80
2018-06-21T10:14:38.394Z,28.90
2018-06-21T10:17:08.635Z,28.80
2018-06-21T10:19:41.557Z,28.20
2018-06-21T10:22:09.625Z,27.90
2018-06-21T10:24:37.809Z,27.60
2018-06-21T10:27:05.844Z,27.60
2018-06-21T10:29:34.038Z,27.70
2018-06-21T10:32:02.325Z,27.30
2018-06-21T10:34:30.830Z,27.40
2018-06-21T10:36:59.213Z,27.50
2018-06-21T10:39:27.363Z,27.50
2018-06-21T10:41:55.398Z,27.70
2018-06-21T10:44:23.605Z,27.90
2018-06-21T10:46:51.542Z,28.10
2018-06-21T10:49:19.517Z,28.20
2018-06-21T10:51:47.642Z,28.40
2018-06-21T10:54:16.488Z,28.40
2018-06-21T10:56:45.527Z,28.50
2018-06-21T10:59:14.639Z,28.40
2018-06-21T11:01:44.044Z,28.50
2018-06-21T11:04:12.370Z,28.20
2018-06-21T11:06:40.524Z,28.20
2018-06-21T11:09:09.041Z,28.30
2018-06-21T11:11:37.056Z,28.10
2018-06-21T11:14:05.049Z,28.20
2018-06-21T11:16:32.982Z,28.10
2018-06-21T11:19:07.477Z,28.00
2018-06-21T11:21:35.511Z,27.80
2018-06-21T11:24:07.486Z,27.70
2018-06-21T11:26:35.420Z,27.70
2018-06-21T11:29:03.393Z,27.70
2018-06-21T11:31:33.165Z,27.80
2018-06-21T11:34:01.403Z,27.80
2018-06-21T11:36:29.838Z,27.70
2018-06-21T11:38:57.960Z,27.70
2018-06-21T11:41:32.961Z,27.50
2018-06-21T11:44:01.505Z,27.40
2018-06-21T11:46:37.368Z,27.50
2018-06-21T11:49:06.370Z,27.80
2018-06-21T11:51:34.372Z,27.60
2018-06-21T11:54:02.347Z,27.60
2018-06-21T11:56:30.283Z,27.40
2018-06-21T11:58:58.272Z,27.50
2018-06-21T12:01:26.191Z,27.60
2018-06-21T12:03:54.243Z,27.60
2018-06-21T12:06:22.348Z,27.60
2018-06-21T12:08:51.257Z,27.60
2018-06-21T12:11:19.553Z,27.40
2018-06-21T12:13:47.761Z,27.10
2018-06-21T12:16:15.974Z,27.10
2018-06-21T12:18:45.138Z,27.00
2018-06-21T12:23:41.797Z,27.00
2018-06-21T12:26:09.933Z,26.90
2018-06-21T12:28:37.858Z,26.80
2018-06-21T12:31:05.851Z,26.90
2018-06-21T12:33:33.778Z,26.70
2018-06-21T12:36:01.886Z,26.40
2018-06-21T12:38:40.652Z,26.30
2018-06-21T12:41:08.505Z,26.40
2018-06-21T12:43:36.328Z,25.80
2018-06-21T12:46:04.246Z,25.10
2018-06-21T12:48:32.072Z,24.60
2018-06-21T12:51:00.039Z,24.20
2018-06-21T12:53:28.075Z,23.90
2018-06-21T12:55:55.943Z,23.60
2018-06-21T13:00:51.553Z,23.30
2018-06-21T13:03:19.427Z,23.20
2018-06-21T13:05:47.509Z,23.20
2018-06-21T13:09:24.656Z,23.20
2018-06-21T13:12:35.321Z,23.30
2018-06-21T13:15:03.336Z,22.90
2018-06-21T13:17:31.642Z,22.80
2018-06-21T13:20:00.674Z,22.70
2018-06-21T13:22:28.726Z,22.80
2018-06-21T13:24:56.873Z,23.10
2018-06-21T13:27:24.793Z,23.20
2018-06-21T13:29:53.562Z,23.70
2018-06-21T13:32:21.578Z,23.60
2018-06-21T13:34:49.771Z,23.40
2018-06-21T13:37:17.843Z,23.20
2018-06-21T13:39:45.939Z,22.70
2018-06-21T13:42:14.015Z,22.30
2018-06-21T13:44:43.172Z,22.30
2018-06-21T13:47:11.950Z,22.00
2018-06-21T13:52:10.690Z,22.00
2018-06-21T13:54:38.601Z,21.80
2018-06-21T13:57:06.574Z,21.90
2018-06-21T13:59:34.505Z,21.90
2018-06-21T14:02:02.543Z,22.00
2018-06-21T14:04:30.387Z,21.80
2018-06-21T14:06:58.421Z,21.80
2018-06-21T14:09:26.314Z,21.60
2018-06-21T14:11:54.134Z,21.30
2018-06-21T14:14:22.266Z,21.20
2018-06-21T14:16:50.200Z,21.00
2018-06-21T14:19:18.524Z,20.90
2018-06-21T14:21:46.291Z,20.80
2018-06-21T14:24:14.915Z,20.60
2018-06-21T14:26:44.127Z,20.50
2018-06-21T14:31:40.381Z,20.30
2018-06-21T14:34:08.390Z,20.00
2018-06-21T14:36:36.271Z,19.90
2018-06-21T14:39:06.685Z,19.70
2018-06-21T14:41:34.683Z,19.60
2018-06-21T14:44:02.502Z,19.40
2018-06-21T14:46:30.256Z,19.20
2018-06-21T14:48:58.186Z,19.00
2018-06-21T14:51:26.004Z,19.10
2018-06-21T14:53:54.040Z,19.20
2018-06-21T14:56:21.972Z,19.20
2018-06-21T14:58:50.001Z,19.40
2018-06-21T15:01:17.948Z,19.40
2018-06-21T15:03:45.993Z,19.50
2018-06-21T15:06:13.993Z,19.50
2018-06-21T15:08:49.863Z,19.50
